Flight Briefing for CPX726

Departure Arrival
El Nuevo Dorado International Airport (SKBO)
Click to view FAA NOTAMS
Miami International Airport (KMIA)
Click to view FAA NOTAMS
Departure Time Arrival Time
0510 UTC 0815 UTC
Aircraft Distance
B767-300BDSF 1372nm
Departure METAR Arrival METAR
SKBO 180700Z 30003KT 9999 -DZ SCT017 BKN080 14/12 A3033 KMIA 180653Z 14007KT 10SM FEW030 SCT045 SCT065 26/23 A3004 RMK AO2 SLP172 T02560233
Suggested Route
UCA UA301 URSUS FLIPR5


View recent IFR Routes data
Notes



Charts and Procedures

Charts for SKBO
No chart available
Charts for KMIA
No chart available

Ventusky Weather